createdAt,value
2018-08-31T00:01:01.489Z,101553.16
2018-08-31T00:03:41.245Z,101549.95
2018-08-31T00:07:19.190Z,101542.06
2018-08-31T00:09:58.319Z,101548.20
2018-08-31T00:12:37.081Z,101543.94
2018-08-31T00:15:05.458Z,101546.16
2018-08-31T00:17:33.681Z,101549.13
2018-08-31T00:20:02.019Z,101540.03
2018-08-31T00:22:30.238Z,101530.89
2018-08-31T00:26:10.648Z,101530.45
2018-08-31T00:28:50.863Z,101521.35
2018-08-31T00:33:37.151Z,101518.77
2018-08-31T00:36:18.166Z,101508.70
2018-08-31T00:38:57.433Z,101504.73
2018-08-31T00:41:34.086Z,101505.69
2018-08-31T00:44:12.481Z,101505.59
2018-08-31T00:46:40.677Z,101507.38
2018-08-31T00:49:08.894Z,101512.53
2018-08-31T00:51:37.097Z,101512.53
2018-08-31T00:54:05.574Z,101508.27
2018-08-31T00:56:33.777Z,101509.58
2018-08-31T00:59:02.006Z,101512.66
2018-08-31T01:01:30.220Z,101514.31
2018-08-31T01:03:58.438Z,101510.09
2018-08-31T01:06:26.682Z,101508.77
2018-08-31T01:08:54.897Z,101507.44
2018-08-31T01:11:23.111Z,101514.38
2018-08-31T01:13:51.333Z,101516.05
2018-08-31T01:16:19.542Z,101517.78
2018-08-31T01:18:47.785Z,101516.91
2018-08-31T01:21:15.985Z,101516.11
2018-08-31T01:23:44.267Z,101515.25
2018-08-31T01:26:12.486Z,101526.94
2018-08-31T01:28:40.703Z,101515.70
2018-08-31T01:31:08.914Z,101517.40
2018-08-31T01:33:37.138Z,101512.12
2018-08-31T01:36:05.395Z,101516.44
2018-08-31T01:38:33.618Z,101512.09
2018-08-31T01:41:01.854Z,101514.34
2018-08-31T01:43:30.071Z,101508.19
2018-08-31T01:45:58.279Z,101506.96
2018-08-31T01:48:26.521Z,101508.70
2018-08-31T01:50:59.941Z,101507.33
2018-08-31T01:53:29.261Z,101510.05
2018-08-31T01:55:57.485Z,101511.23
2018-08-31T01:58:25.684Z,101503.86
2018-08-31T02:00:53.914Z,101497.75
2018-08-31T02:03:22.113Z,101495.58
2018-08-31T02:05:50.343Z,101496.50
2018-08-31T02:08:18.550Z,101502.16
2018-08-31T02:10:46.794Z,101502.95
2018-08-31T02:13:15.054Z,101495.13
2018-08-31T02:15:43.249Z,101508.59
2018-08-31T02:18:11.478Z,101505.12
2018-08-31T02:20:39.689Z,101506.55
2018-08-31T02:23:07.909Z,101506.49
2018-08-31T02:25:36.128Z,101504.78
2018-08-31T02:28:04.421Z,101510.41
2018-08-31T02:30:32.625Z,101504.82
2018-08-31T02:33:00.860Z,101501.78
2018-08-31T02:35:29.067Z,101508.69
2018-08-31T02:37:57.293Z,101506.96
2018-08-31T02:40:25.509Z,101510.88
2018-08-31T02:42:53.762Z,101504.34
2018-08-31T02:45:21.965Z,101511.80
2018-08-31T02:47:50.228Z,101508.27
2018-08-31T02:50:18.479Z,101511.40
2018-08-31T02:52:46.644Z,101500.45
2018-08-31T02:55:14.893Z,101499.64
2018-08-31T02:57:43.114Z,101497.92
2018-08-31T03:00:11.340Z,101498.73
2018-08-31T03:02:39.569Z,101498.30
2018-08-31T03:05:07.821Z,101503.04
2018-08-31T03:07:36.029Z,101498.24
2018-08-31T03:10:04.250Z,101496.95
2018-08-31T03:12:32.485Z,101495.66
2018-08-31T03:15:00.685Z,101493.04
2018-08-31T03:17:28.890Z,101491.84
2018-08-31T03:19:57.100Z,101491.80
2018-08-31T03:22:25.307Z,101494.88
2018-08-31T03:24:53.510Z,101497.03
2018-08-31T03:27:21.716Z,101497.87
2018-08-31T03:29:49.942Z,101494.86
2018-08-31T03:32:18.228Z,101499.70
2018-08-31T03:34:46.422Z,101498.70
2018-08-31T03:37:14.641Z,101500.93
2018-08-31T03:39:42.850Z,101498.37
2018-08-31T03:42:11.071Z,101495.23
2018-08-31T03:44:39.266Z,101493.51
2018-08-31T03:47:07.487Z,101499.58
2018-08-31T03:49:35.734Z,101498.70
2018-08-31T03:52:03.953Z,101496.22
2018-08-31T03:54:32.194Z,101497.08
2018-08-31T03:57:00.960Z,101497.48
2018-08-31T03:59:29.165Z,101504.97
2018-08-31T04:01:57.374Z,101497.10
2018-08-31T04:04:25.603Z,101500.58
2018-08-31T04:06:53.801Z,101497.52
2018-08-31T04:09:22.006Z,101495.40
2018-08-31T04:11:50.397Z,101492.77
2018-08-31T04:14:18.638Z,101495.78
2018-08-31T04:16:46.842Z,101495.36
2018-08-31T04:19:16.694Z,101497.03
2018-08-31T04:21:45.466Z,101494.00
2018-08-31T04:24:14.999Z,101501.83
2018-08-31T04:26:43.261Z,101499.66
2018-08-31T04:29:11.982Z,101503.18
2018-08-31T04:31:40.583Z,101505.80
2018-08-31T04:34:10.832Z,101504.05
2018-08-31T04:36:39.007Z,101506.23
2018-08-31T04:39:09.137Z,101507.53
2018-08-31T04:41:37.481Z,101511.92
2018-08-31T04:44:05.714Z,101514.07
2018-08-31T04:46:34.687Z,101513.66
2018-08-31T04:49:02.891Z,101520.59
2018-08-31T04:51:31.109Z,101504.09
2018-08-31T04:53:59.326Z,101513.68
2018-08-31T04:56:27.765Z,101517.15
2018-08-31T04:58:56.112Z,101511.04
2018-08-31T05:01:24.309Z,101514.50
2018-08-31T05:03:52.659Z,101512.34
2018-08-31T05:06:20.908Z,101511.42
2018-08-31T05:08:49.127Z,101507.89
2018-08-31T05:11:18.135Z,101511.39
2018-08-31T05:13:46.450Z,101510.16
2018-08-31T05:16:14.696Z,101510.08
2018-08-31T05:18:42.895Z,101510.95
2018-08-31T05:21:11.112Z,101513.98
2018-08-31T05:23:39.357Z,101519.27
2018-08-31T05:26:07.595Z,101515.30
2018-08-31T05:28:35.813Z,101521.40
2018-08-31T05:31:04.131Z,101520.91
2018-08-31T05:33:32.382Z,101522.20
2018-08-31T05:36:00.621Z,101521.32
2018-08-31T05:38:28.846Z,101525.24
2018-08-31T05:40:57.054Z,101530.92
2018-08-31T05:43:25.269Z,101530.45
2018-08-31T05:45:53.506Z,101541.45
2018-08-31T05:48:21.781Z,101539.19
2018-08-31T05:50:50.044Z,101540.55
2018-08-31T05:53:18.265Z,101543.17
2018-08-31T05:55:46.515Z,101542.65
2018-08-31T05:58:14.741Z,101543.61
2018-08-31T06:00:43.000Z,101539.66
2018-08-31T06:03:11.517Z,101540.07
2018-08-31T06:05:39.774Z,101548.34
2018-08-31T06:08:07.986Z,101543.10
2018-08-31T06:10:36.214Z,101544.82
2018-08-31T06:13:04.437Z,101548.66
2018-08-31T06:15:32.666Z,101539.45
2018-08-31T06:18:00.918Z,101542.05
2018-08-31T06:20:29.397Z,101545.95
2018-08-31T06:22:57.614Z,101540.27
2018-08-31T06:25:25.841Z,101545.66
2018-08-31T06:27:54.098Z,101552.50
2018-08-31T06:30:22.316Z,101549.90
2018-08-31T06:32:50.547Z,101542.37
2018-08-31T06:35:18.833Z,101553.44
2018-08-31T06:37:47.047Z,101560.00
2018-08-31T06:40:15.289Z,101557.85
2018-08-31T06:42:43.547Z,101555.51
2018-08-31T06:45:11.791Z,101563.25
2018-08-31T06:47:40.022Z,101561.79
2018-08-31T06:50:08.261Z,101571.36
2018-08-31T06:52:36.525Z,101557.86
2018-08-31T06:55:04.917Z,101565.69
2018-08-31T06:57:33.166Z,101553.80
2018-08-31T07:00:01.447Z,101561.57
2018-08-31T07:02:29.655Z,101562.39
2018-08-31T07:04:57.897Z,101562.79
2018-08-31T07:07:26.125Z,101569.78
2018-08-31T07:09:54.602Z,101565.34
2018-08-31T07:12:23.007Z,101569.62
2018-08-31T07:14:51.094Z,101569.19
2018-08-31T07:17:19.337Z,101571.44
2018-08-31T07:19:47.726Z,101573.48
2018-08-31T07:22:15.790Z,101573.58
2018-08-31T07:24:44.010Z,101575.02
2018-08-31T07:27:12.260Z,101576.33
2018-08-31T07:29:40.495Z,101571.02
2018-08-31T07:32:08.770Z,101565.59
2018-08-31T07:34:36.974Z,101570.99
2018-08-31T07:37:05.221Z,101576.41
2018-08-31T07:39:33.462Z,101580.84
2018-08-31T07:42:01.679Z,101579.44
2018-08-31T07:44:29.888Z,101575.83
2018-08-31T07:46:58.110Z,101579.16
2018-08-31T07:49:26.663Z,101574.39
2018-08-31T07:51:54.872Z,101571.43
2018-08-31T07:54:23.225Z,101579.66
2018-08-31T07:56:51.446Z,101578.52
2018-08-31T07:59:19.697Z,101571.41
2018-08-31T08:01:47.918Z,101582.55
2018-08-31T08:04:16.144Z,101572.64
2018-08-31T08:06:44.354Z,101574.72
2018-08-31T08:09:12.606Z,101585.87
2018-08-31T08:11:40.810Z,101577.00
2018-08-31T08:14:09.026Z,101572.70
2018-08-31T08:16:37.484Z,101574.73
2018-08-31T08:19:05.706Z,101573.87
2018-08-31T08:21:33.954Z,101577.68
2018-08-31T08:24:02.238Z,101580.33
2018-08-31T08:26:30.482Z,101580.09
2018-08-31T08:28:58.704Z,101578.56
2018-08-31T08:31:26.942Z,101572.16
2018-08-31T08:33:55.157Z,101575.89
2018-08-31T08:36:23.465Z,101575.27
2018-08-31T08:38:51.741Z,101576.41
2018-08-31T08:41:19.958Z,101578.34
2018-08-31T08:43:48.170Z,101578.76
2018-08-31T08:46:16.462Z,101572.52
2018-08-31T08:48:44.880Z,101577.17
2018-08-31T08:51:12.947Z,101578.23
2018-08-31T08:53:41.147Z,101576.56
2018-08-31T08:56:09.405Z,101573.69
2018-08-31T08:58:37.645Z,101577.97
2018-08-31T09:01:05.958Z,101569.56
2018-08-31T09:03:34.181Z,101576.37
2018-08-31T09:06:02.414Z,101573.66
2018-08-31T09:08:30.663Z,101570.25
2018-08-31T09:10:58.865Z,101569.80
2018-08-31T09:13:27.099Z,101561.41
2018-08-31T09:15:55.317Z,101563.81
2018-08-31T09:18:26.614Z,101565.59
2018-08-31T09:20:55.407Z,101557.02
2018-08-31T09:23:23.604Z,101564.80
2018-08-31T09:25:52.514Z,101564.02
2018-08-31T09:28:20.731Z,101558.78
2018-08-31T09:30:49.082Z,101554.24
2018-08-31T09:33:18.065Z,101560.33
2018-08-31T09:35:46.582Z,101555.40
2018-08-31T09:38:14.845Z,101559.75
2018-08-31T09:40:43.073Z,101552.29
2018-08-31T09:43:11.284Z,101552.03
2018-08-31T09:45:39.542Z,101551.55
2018-08-31T09:48:07.757Z,101559.91
2018-08-31T09:50:36.173Z,101559.25
2018-08-31T09:53:04.498Z,101557.66
2018-08-31T09:55:32.726Z,101548.05
2018-08-31T09:58:00.966Z,101542.08
2018-08-31T10:00:34.661Z,101542.33
2018-08-31T10:03:05.986Z,101540.38
2018-08-31T10:05:34.270Z,101546.28
2018-08-31T10:08:02.499Z,101549.83
2018-08-31T10:10:30.718Z,101545.50
2018-08-31T10:12:58.945Z,101548.22
2018-08-31T10:15:28.252Z,101544.30
2018-08-31T10:17:56.497Z,101544.80
2018-08-31T10:20:24.695Z,101539.91
2018-08-31T10:22:52.905Z,101531.47
2018-08-31T10:25:21.121Z,101535.52
2018-08-31T10:27:49.351Z,101535.73
2018-08-31T10:30:17.756Z,101535.47
2018-08-31T10:32:45.998Z,101538.19
2018-08-31T10:35:14.266Z,101534.38
2018-08-31T10:37:42.499Z,101533.41
2018-08-31T10:40:10.787Z,101529.17
2018-08-31T10:42:38.986Z,101533.73
2018-08-31T10:45:07.825Z,101530.48
2018-08-31T10:47:36.078Z,101525.98
2018-08-31T10:50:04.654Z,101521.36
2018-08-31T10:52:32.914Z,101529.80
2018-08-31T10:55:01.140Z,101524.95
2018-08-31T10:57:29.361Z,101528.02
2018-08-31T10:59:57.602Z,101518.77
2018-08-31T11:02:25.822Z,101521.00
2018-08-31T11:04:54.041Z,101525.14
2018-08-31T11:07:22.265Z,101529.02
2018-08-31T11:09:50.503Z,101521.11
2018-08-31T11:12:18.721Z,101525.41
2018-08-31T11:14:46.942Z,101526.64
2018-08-31T11:17:15.158Z,101530.78
2018-08-31T11:19:43.386Z,101519.78
2018-08-31T11:22:11.599Z,101529.70
2018-08-31T11:24:39.827Z,101520.31
2018-08-31T11:27:08.453Z,101518.14
2018-08-31T11:29:36.664Z,101515.13
2018-08-31T11:32:05.169Z,101517.50
2018-08-31T11:34:33.471Z,101514.80
2018-08-31T11:37:01.700Z,101512.05
2018-08-31T11:39:29.955Z,101512.05
2018-08-31T11:41:58.142Z,101509.72
2018-08-31T11:44:26.358Z,101510.02
2018-08-31T11:46:54.566Z,101505.23
2018-08-31T11:49:22.809Z,101508.27
2018-08-31T11:51:51.034Z,101501.50
2018-08-31T11:54:19.267Z,101506.19
2018-08-31T11:56:47.482Z,101496.83
2018-08-31T11:59:15.722Z,101478.09
2018-08-31T12:01:43.971Z,101480.20
2018-08-31T12:04:12.182Z,101485.58
2018-08-31T12:06:40.419Z,101491.37
2018-08-31T12:09:09.218Z,101483.17
2018-08-31T12:11:37.690Z,101482.11
2018-08-31T12:14:06.287Z,101485.20
2018-08-31T12:16:34.998Z,101484.78
2018-08-31T12:19:03.299Z,101484.06
2018-08-31T12:21:31.569Z,101470.75
2018-08-31T12:23:59.818Z,101477.86
2018-08-31T12:26:28.037Z,101477.54
2018-08-31T12:28:56.278Z,101473.52
2018-08-31T12:31:24.518Z,101478.90
2018-08-31T12:33:52.742Z,101476.77
2018-08-31T12:36:20.950Z,101474.98
2018-08-31T12:38:49.181Z,101478.33
2018-08-31T12:41:17.413Z,101469.16
2018-08-31T12:43:45.670Z,101479.55
2018-08-31T12:46:13.851Z,101474.16
2018-08-31T12:48:42.059Z,101471.73
2018-08-31T12:51:10.279Z,101480.19
2018-08-31T12:53:38.501Z,101471.08
2018-08-31T12:56:06.798Z,101470.23
2018-08-31T12:58:35.042Z,101481.17
2018-08-31T13:01:03.334Z,101474.34
2018-08-31T13:03:31.614Z,101476.22
2018-08-31T13:05:59.850Z,101475.11
2018-08-31T13:08:28.097Z,101471.39
2018-08-31T13:10:56.354Z,101459.06
2018-08-31T13:13:24.565Z,101470.52
2018-08-31T13:15:52.820Z,101466.63
2018-08-31T13:18:21.174Z,101465.36
2018-08-31T13:20:49.446Z,101460.16
2018-08-31T13:23:17.684Z,101456.26
2018-08-31T13:25:45.898Z,101452.68
2018-08-31T13:28:14.167Z,101455.38
2018-08-31T13:30:42.386Z,101455.77
2018-08-31T13:33:10.645Z,101459.35
2018-08-31T13:35:38.885Z,101456.86
2018-08-31T13:38:07.131Z,101453.47
2018-08-31T13:40:35.350Z,101462.27
2018-08-31T13:43:03.573Z,101456.22
2018-08-31T13:45:31.803Z,101453.23
2018-08-31T13:48:02.058Z,101452.19
2018-08-31T13:50:30.430Z,101447.36
2018-08-31T13:52:59.978Z,101447.16
2018-08-31T13:55:28.242Z,101441.39
2018-08-31T13:57:56.514Z,101453.45
2018-08-31T14:00:24.718Z,101447.14
2018-08-31T14:02:53.026Z,101452.07
2018-08-31T14:05:21.250Z,101451.66
2018-08-31T14:07:49.514Z,101454.50
2018-08-31T14:10:17.741Z,101453.77
2018-08-31T14:12:45.994Z,101460.64
2018-08-31T14:15:14.193Z,101455.01
2018-08-31T14:17:43.498Z,101450.33
2018-08-31T14:20:11.731Z,101453.31
2018-08-31T14:22:39.963Z,101464.12
2018-08-31T14:25:08.189Z,101465.67
2018-08-31T14:27:36.410Z,101467.71
2018-08-31T14:30:04.854Z,101473.98
2018-08-31T14:32:33.146Z,101458.75
2018-08-31T14:35:01.362Z,101467.72
2018-08-31T14:37:29.754Z,101453.45
2018-08-31T14:39:57.970Z,101459.21
2018-08-31T14:42:26.198Z,101460.72
2018-08-31T14:44:54.430Z,101461.11
2018-08-31T14:47:22.649Z,101456.48
2018-08-31T14:49:50.901Z,101462.21
2018-08-31T14:52:19.111Z,101464.05
2018-08-31T14:54:47.326Z,101453.97
2018-08-31T14:57:15.530Z,101456.86
2018-08-31T14:59:43.769Z,101454.77
2018-08-31T15:02:11.986Z,101456.48
2018-08-31T15:04:40.250Z,101458.45
2018-08-31T15:07:08.458Z,101455.80
2018-08-31T15:09:36.709Z,101451.99
2018-08-31T15:12:04.929Z,101452.74
2018-08-31T15:14:33.154Z,101455.55
2018-08-31T15:17:01.374Z,101455.23
2018-08-31T15:19:29.577Z,101456.94
2018-08-31T15:21:57.845Z,101446.31
2018-08-31T15:24:26.128Z,101442.39
2018-08-31T15:26:54.369Z,101445.11
2018-08-31T15:29:22.576Z,101440.52
2018-08-31T15:31:50.910Z,101445.81
2018-08-31T15:34:19.138Z,101446.59
2018-08-31T15:36:47.415Z,101442.12
2018-08-31T15:39:15.605Z,101443.55
2018-08-31T15:41:43.825Z,101444.92
2018-08-31T15:44:12.079Z,101445.95
2018-08-31T15:46:40.290Z,101446.72
2018-08-31T15:49:08.522Z,101441.75
2018-08-31T15:51:36.742Z,101443.33
2018-08-31T15:54:05.018Z,101443.92
2018-08-31T15:56:33.257Z,101450.70
2018-08-31T15:59:01.562Z,101450.49
2018-08-31T16:01:29.910Z,101448.67
2018-08-31T16:03:58.178Z,101450.28
2018-08-31T16:06:26.430Z,101454.05
2018-08-31T16:08:54.649Z,101447.66
2018-08-31T16:11:22.849Z,101454.62
2018-08-31T16:13:51.446Z,101458.50
2018-08-31T16:16:19.649Z,101462.73
2018-08-31T16:18:48.261Z,101460.45
2018-08-31T16:21:16.468Z,101456.77
2018-08-31T16:23:44.707Z,101461.44
2018-08-31T16:26:13.017Z,101467.71
2018-08-31T16:28:41.221Z,101457.67
2018-08-31T16:31:09.472Z,101462.76
2018-08-31T16:33:37.854Z,101465.02
2018-08-31T16:36:06.113Z,101463.34
2018-08-31T16:38:34.365Z,101472.38
2018-08-31T16:41:02.610Z,101466.44
2018-08-31T16:43:30.822Z,101470.02
2018-08-31T16:45:59.056Z,101468.83
2018-08-31T16:48:27.290Z,101472.25
2018-08-31T16:50:55.519Z,101480.41
2018-08-31T16:53:23.758Z,101480.47
2018-08-31T16:55:51.962Z,101480.89
2018-08-31T16:58:20.185Z,101473.36
2018-08-31T17:00:48.428Z,101477.05
2018-08-31T17:03:16.634Z,101478.31
2018-08-31T17:05:44.837Z,101483.06
2018-08-31T17:08:13.668Z,101476.69
2018-08-31T17:10:41.871Z,101476.78
2018-08-31T17:13:10.098Z,101482.95
2018-08-31T17:15:38.343Z,101487.18
2018-08-31T17:18:06.565Z,101487.73
2018-08-31T17:20:34.909Z,101492.08
2018-08-31T17:23:03.134Z,101497.29
2018-08-31T17:25:31.367Z,101496.67
2018-08-31T17:28:04.991Z,101493.95
2018-08-31T17:30:33.205Z,101501.50
2018-08-31T17:33:06.713Z,101502.49
2018-08-31T17:35:40.277Z,101503.45
2018-08-31T17:38:08.548Z,101515.20
2018-08-31T17:40:36.766Z,101515.73
2018-08-31T17:43:05.062Z,101511.73
2018-08-31T17:45:33.297Z,101513.98
2018-08-31T17:48:01.527Z,101517.89
2018-08-31T17:50:29.725Z,101522.39
2018-08-31T17:52:58.797Z,101524.76
2018-08-31T17:55:27.239Z,101531.27
2018-08-31T17:57:56.949Z,101534.67
2018-08-31T18:00:25.246Z,101531.58
2018-08-31T18:02:53.469Z,101532.34
2018-08-31T18:05:21.715Z,101539.70
2018-08-31T18:07:50.010Z,101542.88
2018-08-31T18:10:18.227Z,101541.63
2018-08-31T18:12:46.455Z,101544.55
2018-08-31T18:15:15.697Z,101552.07
2018-08-31T18:17:43.985Z,101556.30
2018-08-31T18:20:12.350Z,101554.94
2018-08-31T18:22:40.572Z,101560.70
2018-08-31T18:25:08.850Z,101559.89
2018-08-31T18:27:37.056Z,101561.13
2018-08-31T18:30:05.333Z,101559.75
2018-08-31T18:32:33.608Z,101563.48
2018-08-31T18:35:01.826Z,101563.53
2018-08-31T18:37:30.048Z,101571.42
2018-08-31T18:39:58.392Z,101569.53
2018-08-31T18:42:27.735Z,101576.98
2018-08-31T18:44:55.946Z,101580.20
2018-08-31T18:47:24.150Z,101584.81
2018-08-31T18:49:52.415Z,101583.86
2018-08-31T18:52:20.677Z,101585.90
2018-08-31T18:54:48.895Z,101589.58
2018-08-31T18:57:17.110Z,101589.35
2018-08-31T18:59:45.358Z,101595.97
2018-08-31T19:02:13.656Z,101599.33
2018-08-31T19:04:41.867Z,101594.14
2018-08-31T19:07:10.082Z,101600.48
2018-08-31T19:09:38.292Z,101607.09
2018-08-31T19:12:06.517Z,101610.75
2018-08-31T19:14:34.753Z,101614.19
2018-08-31T19:17:02.980Z,101615.64
2018-08-31T19:19:31.198Z,101624.91
2018-08-31T19:21:59.441Z,101622.52
2018-08-31T19:24:27.646Z,101625.58
2018-08-31T19:26:57.146Z,101629.71
2018-08-31T19:29:26.935Z,101629.20
2018-08-31T19:31:55.158Z,101634.47
2018-08-31T19:34:23.366Z,101631.13
2018-08-31T19:36:51.650Z,101634.21
2018-08-31T19:39:19.896Z,101637.77
2018-08-31T19:41:48.133Z,101642.84
2018-08-31T19:44:16.433Z,101646.45
2018-08-31T19:46:44.682Z,101643.59
2018-08-31T19:49:12.888Z,101652.09
2018-08-31T19:51:41.089Z,101648.92
2018-08-31T19:54:09.379Z,101649.95
2018-08-31T19:56:37.625Z,101654.37
2018-08-31T19:59:06.803Z,101649.12
2018-08-31T20:01:35.100Z,101656.22
2018-08-31T20:04:03.358Z,101662.44
2018-08-31T20:06:31.659Z,101656.30
2018-08-31T20:08:59.813Z,101667.25
2018-08-31T20:11:28.026Z,101665.51
2018-08-31T20:13:56.281Z,101663.39
2018-08-31T20:16:24.500Z,101665.92
2018-08-31T20:18:52.785Z,101668.52
2018-08-31T20:21:21.016Z,101668.13
2018-08-31T20:23:49.252Z,101673.37
2018-08-31T20:26:17.569Z,101677.52
2018-08-31T20:28:45.849Z,101676.56
2018-08-31T20:31:14.142Z,101677.80
2018-08-31T20:33:42.375Z,101676.60
2018-08-31T20:36:10.605Z,101681.58
2018-08-31T20:38:38.861Z,101678.51
2018-08-31T20:41:07.045Z,101687.62
2018-08-31T20:43:35.267Z,101689.48
2018-08-31T20:46:03.507Z,101686.38
2018-08-31T20:48:31.722Z,101688.35
2018-08-31T20:50:59.937Z,101691.23
2018-08-31T20:53:28.364Z,101687.51
2018-08-31T20:55:56.698Z,101692.20
2018-08-31T20:58:25.043Z,101696.72
2018-08-31T21:00:53.302Z,101690.77
2018-08-31T21:03:21.566Z,101699.16
2018-08-31T21:05:49.803Z,101702.66
2018-08-31T21:08:18.118Z,101709.67
2018-08-31T21:10:46.371Z,101705.46
2018-08-31T21:13:14.642Z,101706.30
2018-08-31T21:15:42.885Z,101712.02
2018-08-31T21:18:11.227Z,101703.64
2018-08-31T21:20:39.470Z,101706.72
2018-08-31T21:23:07.733Z,101703.12
2018-08-31T21:25:37.026Z,101706.30
2018-08-31T21:28:07.062Z,101697.41
2018-08-31T21:30:35.298Z,101702.45
2018-08-31T21:33:03.594Z,101702.09
2018-08-31T21:35:31.960Z,101701.27
2018-08-31T21:38:00.158Z,101707.42
2018-08-31T21:40:28.417Z,101707.94
2018-08-31T21:42:56.680Z,101706.15
2018-08-31T21:45:24.897Z,101703.05
2018-08-31T21:47:53.149Z,101704.85
2018-08-31T21:50:21.379Z,101703.59
2018-08-31T21:52:49.590Z,101708.44
2018-08-31T21:55:17.846Z,101705.88
2018-08-31T21:57:46.123Z,101703.38
2018-08-31T22:00:17.091Z,101708.59
2018-08-31T22:02:45.314Z,101705.47
2018-08-31T22:05:14.041Z,101712.44
2018-08-31T22:07:42.258Z,101709.44
2018-08-31T22:10:10.478Z,101707.20
2018-08-31T22:12:38.694Z,101705.97
2018-08-31T22:15:11.820Z,101712.50
2018-08-31T22:17:40.121Z,101712.09
2018-08-31T22:20:08.324Z,101706.89
2018-08-31T22:22:36.566Z,101710.77
2018-08-31T22:25:06.789Z,101718.63
2018-08-31T22:27:36.154Z,101718.63
2018-08-31T22:30:04.725Z,101723.45
2018-08-31T22:32:32.942Z,101715.66
2018-08-31T22:35:01.173Z,101716.95
2018-08-31T22:37:29.373Z,101716.94
2018-08-31T22:39:57.610Z,101712.98
2018-08-31T22:42:25.835Z,101715.59
2018-08-31T22:44:54.049Z,101717.37
2018-08-31T22:47:22.270Z,101721.77
2018-08-31T22:49:50.494Z,101718.26
2018-08-31T22:52:18.713Z,101720.03
2018-08-31T22:54:46.941Z,101723.50
2018-08-31T22:57:15.274Z,101719.61
2018-08-31T22:59:43.620Z,101720.91
2018-08-31T23:02:11.693Z,101717.42
2018-08-31T23:04:39.918Z,101715.67
2018-08-31T23:07:13.450Z,101717.41
2018-08-31T23:09:41.670Z,101715.66
2018-08-31T23:12:09.885Z,101719.14
2018-08-31T23:14:38.094Z,101713.03
2018-08-31T23:17:06.341Z,101712.60
2018-08-31T23:19:34.645Z,101718.73
2018-08-31T23:22:02.865Z,101717.42
2018-08-31T23:24:31.091Z,101726.55
2018-08-31T23:26:59.301Z,101722.66
2018-08-31T23:29:27.522Z,101726.55
2018-08-31T23:31:55.736Z,101725.22
2018-08-31T23:34:23.934Z,101726.58
2018-08-31T23:36:52.145Z,101720.92
2018-08-31T23:39:20.386Z,101723.53
2018-08-31T23:41:48.604Z,101726.98
2018-08-31T23:44:16.891Z,101726.06
2018-08-31T23:46:45.117Z,101729.14
2018-08-31T23:49:14.768Z,101728.66
2018-08-31T23:51:43.061Z,101732.11
2018-08-31T23:54:11.280Z,101737.77
2018-08-31T23:56:39.497Z,101727.75
2018-08-31T23:59:07.709Z,101727.73
